Time;durP1;ratioP1;P1;durP2;ratioP2;P2;SDS_P1;SDS_P2;PMS_P1;PMS_P2;Temp;Humidity;BMP_temperature;BMP_pressure;BME280_temperature;BME280_humidity;BME280_pressure;Samples;Min_cycle;Max_cycle;Signal;HPM_P1;HPM_P2
2022/05/03 00:01:25;;;;;;;1.02;0.82;;;11.90;99.90;;;;;;4423251;32;20057;-68
2022/05/03 00:04:05;;;;;;;1.40;0.70;;;11.90;99.90;;;;;;4430913;32;20066;-68
2022/05/03 00:06:56;;;;;;;1.00;0.90;;;11.90;99.90;;;;;;4441984;32;20090;-68
2022/05/03 00:09:38;;;;;;;1.23;1.10;;;12.00;99.90;;;;;;4446064;32;20069;-68
2022/05/03 00:12:08;;;;;;;0.47;0.47;;;12.10;99.90;;;;;;4440806;32;20061;-67
2022/05/03 00:14:43;;;;;;;0.65;0.60;;;12.20;99.90;;;;;;4443430;32;20073;-68
2022/05/03 00:17:13;;;;;;;1.08;0.88;;;12.30;99.90;;;;;;4441039;32;20450;-68
2022/05/03 00:19:38;;;;;;;0.93;0.75;;;12.30;99.90;;;;;;4442375;32;20069;-68
2022/05/03 00:22:04;;;;;;;0.47;0.47;;;12.20;99.90;;;;;;4442161;32;20105;-68
2022/05/03 00:24:30;;;;;;;0.50;0.50;;;12.30;99.90;;;;;;4441338;32;20524;-68
2022/05/03 00:26:56;;;;;;;0.52;0.50;;;12.40;99.90;;;;;;4425353;32;20077;-67
2022/05/03 00:29:22;;;;;;;1.10;0.60;;;12.40;99.90;;;;;;4421168;32;20493;-67
2022/05/03 00:31:48;;;;;;;0.55;0.55;;;12.30;99.90;;;;;;4427683;32;20068;-67
2022/05/03 00:34:16;;;;;;;0.85;0.60;;;12.40;99.90;;;;;;4441685;32;20061;-68
2022/05/03 00:36:41;;;;;;;1.00;0.80;;;12.50;99.90;;;;;;4441422;32;20068;-67
2022/05/03 00:39:07;;;;;;;4.95;1.20;;;12.50;99.90;;;;;;4440899;32;20090;-67
2022/05/03 00:41:45;;;;;;;1.48;0.77;;;12.60;99.90;;;;;;4441162;32;20069;-67
2022/05/03 00:45:09;;;;;;;0.45;0.45;;;12.60;99.90;;;;;;4438257;32;20074;-67
2022/05/03 00:47:30;;;;;;;0.55;0.55;;;12.50;99.90;;;;;;4427023;32;20609;-67
2022/05/03 00:50:06;;;;;;;11.75;0.80;;;12.70;99.90;;;;;;4440950;32;20065;-67
2022/05/03 00:52:59;;;;;;;0.82;0.60;;;12.70;99.90;;;;;;4440006;32;20113;-67
2022/05/03 00:55:59;;;;;;;0.50;0.50;;;12.70;99.90;;;;;;4428299;32;20139;-67
2022/05/03 00:58:28;;;;;;;0.45;0.45;;;12.80;99.90;;;;;;4414875;32;20362;-67
2022/05/03 01:01:05;;;;;;;3.78;0.93;;;12.80;99.90;;;;;;4423986;32;20091;-68
2022/05/03 01:03:54;;;;;;;0.55;0.47;;;12.80;99.90;;;;;;4440510;32;20057;-67
2022/05/03 01:06:35;;;;;;;1.05;0.70;;;12.70;99.90;;;;;;4442814;32;20085;-67
2022/05/03 01:09:09;;;;;;;0.88;0.85;;;12.60;99.90;;;;;;4440794;32;20110;-67
2022/05/03 01:12:01;;;;;;;0.50;0.50;;;12.40;99.90;;;;;;4440861;32;20080;-67
2022/05/03 01:15:06;;;;;;;0.50;0.50;;;12.40;99.90;;;;;;4430907;32;20064;-67
2022/05/03 01:17:58;;;;;;;0.68;0.60;;;12.40;99.90;;;;;;4430205;32;20108;-67
2022/05/03 01:20:36;;;;;;;1.00;0.98;;;12.20;99.90;;;;;;4430102;32;20289;-67
2022/05/03 01:23:32;;;;;;;0.50;0.47;;;12.20;99.90;;;;;;4441443;32;20061;-67
2022/05/03 01:26:21;;;;;;;1.80;0.90;;;12.30;99.90;;;;;;4428594;32;20085;-67
2022/05/03 01:29:16;;;;;;;1.30;0.68;;;11.90;99.90;;;;;;4421036;32;20608;-67
2022/05/03 01:31:42;;;;;;;0.47;0.47;;;11.60;99.90;;;;;;4418637;32;20540;-67
2022/05/03 01:34:12;;;;;;;0.30;0.30;;;11.30;99.90;;;;;;4440597;32;20114;-67
2022/05/03 01:36:53;;;;;;;1.35;0.82;;;11.30;99.90;;;;;;4439946;32;20633;-67
2022/05/03 01:39:46;;;;;;;0.70;0.70;;;11.20;99.90;;;;;;4441713;32;20534;-67
2022/05/03 01:42:44;;;;;;;0.77;0.65;;;11.20;99.90;;;;;;4439168;32;20128;-67
2022/05/03 01:45:11;;;;;;;0.60;0.60;;;11.20;99.90;;;;;;4427493;32;20128;-67
2022/05/03 01:48:12;;;;;;;2.47;1.10;;;11.30;99.90;;;;;;4442278;32;20486;-67
2022/05/03 01:50:45;;;;;;;0.77;0.70;;;11.40;99.90;;;;;;4428975;32;20077;-67
2022/05/03 01:53:35;;;;;;;1.77;0.57;;;11.40;99.90;;;;;;4441538;32;20073;-67
2022/05/03 01:56:32;;;;;;;0.62;0.60;;;11.60;99.90;;;;;;4438861;32;20077;-67
2022/05/03 01:59:05;;;;;;;1.17;0.60;;;11.60;99.90;;;;;;4411040;32;20608;-67
2022/05/03 02:02:04;;;;;;;1.08;0.80;;;11.60;99.90;;;;;;4424470;32;20388;-67
2022/05/03 02:04:40;;;;;;;4.37;1.08;;;11.40;99.90;;;;;;4430020;32;20513;-67
2022/05/03 02:07:14;;;;;;;1.55;0.90;;;11.30;99.90;;;;;;4438154;32;20053;-67
2022/05/03 02:09:46;;;;;;;0.62;0.62;;;11.20;99.90;;;;;;4440392;32;20085;-67
2022/05/03 02:12:15;;;;;;;0.75;0.60;;;11.30;99.90;;;;;;4440877;32;20069;-67
2022/05/03 02:14:51;;;;;;;1.23;0.82;;;11.30;99.90;;;;;;4438806;32;20060;-67
2022/05/03 02:17:46;;;;;;;1.02;0.90;;;11.40;99.90;;;;;;4438429;32;20066;-68
2022/05/03 02:20:51;;;;;;;0.32;0.32;;;11.50;99.90;;;;;;4440769;32;20105;-68
2022/05/03 02:23:22;;;;;;;1.37;1.20;;;11.50;99.90;;;;;;4425768;32;20065;-67
2022/05/03 02:25:59;;;;;;;0.82;0.82;;;11.30;99.90;;;;;;4437529;32;20078;-67
2022/05/03 02:28:47;;;;;;;0.65;0.47;;;11.10;99.90;;;;;;4427576;32;20076;-67
2022/05/03 02:31:17;;;;;;;0.85;0.68;;;11.20;99.90;;;;;;4422673;32;20077;-67
2022/05/03 02:33:49;;;;;;;1.60;1.08;;;11.20;99.90;;;;;;4436865;32;20070;-67
2022/05/03 02:36:17;;;;;;;0.50;0.50;;;11.10;99.90;;;;;;4437198;32;20085;-67
2022/05/03 02:39:05;;;;;;;0.98;0.77;;;10.90;99.90;;;;;;4441220;32;20558;-67
2022/05/03 02:41:41;;;;;;;0.88;0.85;;;10.80;99.90;;;;;;4438156;32;20070;-66
2022/05/03 02:44:07;;;;;;;0.30;0.30;;;10.90;99.90;;;;;;4440190;32;20064;-67
2022/05/03 02:46:48;;;;;;;0.70;0.70;;;10.90;99.90;;;;;;4441150;32;20101;-67
2022/05/03 02:49:33;;;;;;;;;;;10.80;99.90;;;;;;4426965;32;20057;-67
2022/05/03 02:52:25;;;;;;;0.55;0.55;;;10.90;99.90;;;;;;4424675;32;19968;-67
2022/05/03 02:55:07;;;;;;;2.47;1.02;;;11.00;99.90;;;;;;4440513;32;20061;-68
2022/05/03 02:57:46;;;;;;;18.65;2.92;;;11.10;99.90;;;;;;4433848;32;20073;-68
2022/05/03 03:03:25;;;;;;;3.92;1.52;;;10.60;99.90;;;;;;4427215;32;20465;-68
2022/05/03 03:05:59;;;;;;;0.28;0.28;;;10.60;99.90;;;;;;4429915;32;20095;-68
2022/05/03 03:08:30;;;;;;;0.60;0.55;;;10.50;99.90;;;;;;4438285;32;20537;-68
2022/05/03 03:11:03;;;;;;;0.85;0.73;;;10.50;99.90;;;;;;4438700;32;20089;-68
2022/05/03 03:13:52;;;;;;;1.12;1.00;;;10.60;99.90;;;;;;4439038;32;20086;-68
2022/05/03 03:16:29;;;;;;;0.80;0.52;;;10.50;99.90;;;;;;4436676;32;20232;-67
2022/05/03 03:18:57;;;;;;;0.45;0.45;;;10.50;99.90;;;;;;4437830;32;20588;-68
2022/05/03 03:21:27;;;;;;;0.73;0.60;;;10.40;99.90;;;;;;4439121;32;20465;-68
2022/05/03 03:23:53;;;;;;;2.40;0.88;;;10.20;99.90;;;;;;4436227;32;20065;-68
2022/05/03 03:26:22;;;;;;;0.70;0.55;;;10.00;99.90;;;;;;4436996;32;20194;-68
2022/05/03 03:28:49;;;;;;;0.65;0.60;;;10.00;99.90;;;;;;4420314;32;20732;-68
2022/05/03 03:31:17;;;;;;;0.68;0.68;;;9.90;99.90;;;;;;4421673;32;20086;-68
2022/05/03 03:33:43;;;;;;;0.52;0.52;;;9.90;99.90;;;;;;4438318;32;20085;-68
2022/05/03 03:36:11;;;;;;;1.37;1.02;;;9.80;99.90;;;;;;4434994;32;20082;-68
2022/05/03 03:38:43;;;;;;;0.30;0.30;;;9.90;99.90;;;;;;4429109;32;20078;-68
2022/05/03 03:41:08;;;;;;;0.50;0.50;;;9.90;99.90;;;;;;4426871;32;20069;-68
2022/05/03 03:43:35;;;;;;;0.85;0.77;;;9.90;99.90;;;;;;4425348;32;20077;-68
2022/05/03 03:46:00;;;;;;;0.65;0.65;;;9.90;99.90;;;;;;4424289;32;20534;-68
2022/05/03 03:48:26;;;;;;;0.90;0.75;;;10.00;99.90;;;;;;4428095;32;20120;-67
2022/05/03 03:50:53;;;;;;;0.65;0.65;;;10.10;99.90;;;;;;4426461;32;20524;-68
2022/05/03 03:53:19;;;;;;;0.75;0.52;;;10.00;99.90;;;;;;4426719;32;20109;-68
2022/05/03 03:55:45;;;;;;;0.50;0.50;;;9.90;99.90;;;;;;4426396;32;20082;-67
2022/05/03 03:58:12;;;;;;;1.12;0.57;;;9.90;99.90;;;;;;4417420;32;20470;-67
2022/05/03 04:00:38;;;;;;;0.57;0.57;;;9.90;99.90;;;;;;4408476;32;20073;-68
2022/05/03 04:03:04;;;;;;;0.77;0.65;;;10.00;99.90;;;;;;4430349;32;20097;-68
2022/05/03 04:05:32;;;;;;;0.40;0.40;;;10.00;99.90;;;;;;4424839;32;20069;-67
2022/05/03 04:07:57;;;;;;;1.08;0.95;;;10.10;99.90;;;;;;4424086;32;20398;-68
2022/05/03 04:10:23;;;;;;;0.68;0.68;;;10.10;99.90;;;;;;4421840;32;20101;-68
2022/05/03 04:12:49;;;;;;;3.58;0.82;;;10.20;99.90;;;;;;4422089;32;20061;-68
2022/05/03 04:15:14;;;;;;;1.33;0.70;;;10.20;99.90;;;;;;4428053;32;20158;-68
2022/05/03 04:17:39;;;;;;;1.62;0.62;;;10.30;99.90;;;;;;4424361;32;20077;-68
2022/05/03 04:20:06;;;;;;;0.57;0.57;;;10.40;99.90;;;;;;4423788;32;20437;-67
2022/05/03 04:22:33;;;;;;;0.60;0.60;;;10.50;99.90;;;;;;4397287;32;20251;-68
2022/05/03 04:25:00;;;;;;;0.90;0.57;;;10.50;99.90;;;;;;4371444;32;20554;-68
2022/05/03 04:27:27;;;;;;;0.68;0.68;;;10.40;99.90;;;;;;4364644;32;20591;-68
2022/05/03 04:29:54;;;;;;;3.90;1.10;;;10.30;99.90;;;;;;4341891;32;20416;-68
2022/05/03 04:32:20;;;;;;;0.50;0.50;;;10.30;99.90;;;;;;4353692;32;20061;-68
2022/05/03 04:34:47;;;;;;;3.00;0.50;;;10.30;99.90;;;;;;4414143;32;20117;-68
2022/05/03 04:37:13;;;;;;;1.65;0.95;;;10.40;99.90;;;;;;4425008;32;20541;-68
2022/05/03 04:39:38;;;;;;;2.35;1.40;;;10.60;99.90;;;;;;4426047;32;20084;-68
2022/05/03 04:42:05;;;;;;;2.47;0.70;;;10.60;99.90;;;;;;4426392;32;20073;-68
2022/05/03 04:44:30;;;;;;;0.70;0.70;;;10.70;99.90;;;;;;4427271;32;20077;-68
2022/05/03 04:46:56;;;;;;;1.02;0.88;;;10.80;99.90;;;;;;4429726;32;20498;-68
2022/05/03 04:49:21;;;;;;;1.25;0.85;;;10.90;99.90;;;;;;4429169;32;20060;-68
2022/05/03 04:51:47;;;;;;;0.68;0.68;;;10.80;99.90;;;;;;4413888;32;20069;-68
2022/05/03 04:54:12;;;;;;;0.82;0.70;;;10.90;99.90;;;;;;4368933;32;20947;-68
2022/05/03 04:56:38;;;;;;;0.47;0.47;;;11.00;99.90;;;;;;4401399;32;20078;-67
2022/05/03 04:59:04;;;;;;;0.80;0.77;;;11.00;99.90;;;;;;4407480;32;20605;-68
2022/05/03 05:01:29;;;;;;;0.57;0.55;;;11.10;99.90;;;;;;4399277;32;20131;-67
2022/05/03 05:03:55;;;;;;;2.72;1.05;;;11.10;99.90;;;;;;4391356;32;20597;-67
2022/05/03 05:06:21;;;;;;;2.25;1.33;;;11.10;99.90;;;;;;4363523;32;20850;-68
2022/05/03 05:08:47;;;;;;;2.65;0.80;;;11.30;99.90;;;;;;4352956;32;20084;-68
2022/05/03 05:11:13;;;;;;;0.50;0.50;;;11.40;99.90;;;;;;4346716;32;20101;-68
2022/05/03 05:13:39;;;;;;;0.75;0.75;;;11.50;99.90;;;;;;4336927;32;20094;-65
2022/05/03 05:16:06;;;;;;;0.57;0.57;;;11.60;99.90;;;;;;4391824;32;20140;-68
2022/05/03 05:18:32;;;;;;;5.68;0.80;;;11.70;99.90;;;;;;4351661;32;20688;-66
2022/05/03 05:20:58;;;;;;;4.00;1.65;;;11.90;99.90;;;;;;4325473;32;20642;-66
2022/05/03 05:23:23;;;;;;;0.77;0.77;;;12.00;99.90;;;;;;4281037;32;20078;-65
2022/05/03 05:25:51;;;;;;;0.40;0.40;;;12.00;99.90;;;;;;4273138;32;20121;-65
2022/05/03 05:28:19;;;;;;;2.10;1.05;;;12.10;99.90;;;;;;4293180;32;20401;-66
2022/05/03 05:30:45;;;;;;;1.48;1.05;;;12.10;99.90;;;;;;4316900;32;20273;-65
2022/05/03 05:33:11;;;;;;;0.93;0.88;;;12.10;99.90;;;;;;4334413;32;20253;-66
2022/05/03 05:35:45;;;;;;;0.82;0.50;;;12.20;99.90;;;;;;4322109;32;21002;-66
2022/05/03 05:38:14;;;;;;;0.57;0.57;;;12.20;99.90;;;;;;4322461;32;20261;-68
2022/05/03 05:40:40;;;;;;;0.75;0.70;;;12.00;99.90;;;;;;4325387;32;20274;-67
2022/05/03 05:43:09;;;;;;;2.55;0.93;;;12.20;99.90;;;;;;4341350;32;20200;-67
2022/05/03 05:45:37;;;;;;;1.75;1.05;;;12.30;99.90;;;;;;4368889;32;20152;-67
2022/05/03 05:48:04;;;;;;;0.57;0.57;;;12.30;99.90;;;;;;4381599;32;20914;-67
2022/05/03 05:50:30;;;;;;;0.57;0.57;;;12.50;99.90;;;;;;4368890;32;20813;-67
2022/05/03 05:53:56;;;;;;;0.73;0.70;;;12.50;99.90;;;;;;4380872;32;20113;-67
2022/05/03 05:55:42;;;;;;;1.23;0.90;;;12.50;99.90;;;;;;4363648;32;21036;-66
2022/05/03 05:58:08;;;;;;;3.83;0.95;;;12.50;99.90;;;;;;4375259;32;20104;-68
2022/05/03 06:00:34;;;;;;;24.75;2.05;;;12.70;99.90;;;;;;4362533;32;20386;-69
2022/05/03 06:03:00;;;;;;;0.60;0.60;;;12.70;99.90;;;;;;4347733;32;20439;-69
2022/05/03 06:05:26;;;;;;;2.70;1.67;;;12.80;99.90;;;;;;4361165;32;20765;-69
2022/05/03 06:07:53;;;;;;;0.70;0.70;;;12.70;99.90;;;;;;4357029;32;20109;-68
2022/05/03 06:10:19;;;;;;;2.65;0.80;;;12.70;99.90;;;;;;4379222;32;20439;-68
2022/05/03 06:12:45;;;;;;;0.98;0.90;;;12.80;99.90;;;;;;4378410;32;20085;-68
2022/05/03 06:15:12;;;;;;;0.88;0.80;;;12.90;99.90;;;;;;4388283;32;20119;-68
2022/05/03 06:17:40;;;;;;;3.20;0.62;;;12.80;99.90;;;;;;4379711;32;20907;-68
2022/05/03 06:20:06;;;;;;;0.45;0.45;;;12.70;99.90;;;;;;4368084;32;21779;-68
2022/05/03 06:22:31;;;;;;;3.80;1.02;;;12.90;99.90;;;;;;4381561;32;20088;-68
2022/05/03 06:24:57;;;;;;;0.50;0.50;;;13.00;99.90;;;;;;4376802;32;20537;-68
2022/05/03 06:27:22;;;;;;;0.50;0.50;;;13.10;99.20;;;;;;4381998;32;20110;-68
2022/05/03 06:29:48;;;;;;;0.30;0.30;;;13.30;98.60;;;;;;4373879;32;20341;-67
2022/05/03 06:32:13;;;;;;;0.68;0.68;;;13.40;98.90;;;;;;4360192;32;20280;-68
2022/05/03 06:34:39;;;;;;;0.40;0.40;;;13.50;98.30;;;;;;4357769;32;20529;-68
2022/05/03 06:37:05;;;;;;;0.62;0.62;;;13.40;97.70;;;;;;4377343;32;20117;-68
2022/05/03 06:39:31;;;;;;;0.45;0.45;;;13.20;97.40;;;;;;4377282;32;20112;-68
2022/05/03 06:41:57;;;;;;;0.98;0.68;;;13.30;97.00;;;;;;4384847;32;20669;-68
2022/05/03 06:44:23;;;;;;;0.68;0.57;;;13.50;96.60;;;;;;4377574;32;20119;-68
2022/05/03 06:46:49;;;;;;;0.50;0.50;;;13.60;95.80;;;;;;4375174;32;20154;-68
2022/05/03 06:49:16;;;;;;;0.30;0.30;;;13.60;95.90;;;;;;4372276;32;20590;-68
2022/05/03 06:51:41;;;;;;;0.37;0.37;;;13.70;96.20;;;;;;4373618;32;20791;-68
2022/05/03 06:54:07;;;;;;;7.05;0.93;;;13.90;95.00;;;;;;4380689;32;20132;-68
2022/05/03 06:56:35;;;;;;;0.35;0.32;;;14.00;95.30;;;;;;4370437;32;20092;-69
2022/05/03 06:59:03;;;;;;;0.30;0.30;;;14.00;93.80;;;;;;4380120;32;21545;-69
2022/05/03 07:01:28;;;;;;;0.70;0.60;;;14.00;93.80;;;;;;4366044;32;20158;-69
2022/05/03 07:03:53;;;;;;;0.30;0.30;;;13.90;94.50;;;;;;4356453;32;20245;-68
2022/05/03 07:06:21;;;;;;;0.62;0.62;;;13.90;93.30;;;;;;4372709;32;20151;-68
2022/05/03 07:08:47;;;;;;;2.05;0.60;;;14.00;93.30;;;;;;4374310;32;20175;-69
2022/05/03 07:11:14;;;;;;;0.65;0.65;;;14.10;93.70;;;;;;4378296;32;20593;-69
2022/05/03 07:13:40;;;;;;;0.30;0.30;;;14.20;92.30;;;;;;4386007;32;20399;-68
2022/05/03 07:16:05;;;;;;;1.08;0.47;;;14.20;92.80;;;;;;4391657;32;20161;-69
2022/05/03 07:22:51;;;;;;;0.52;0.52;;;14.30;92.90;;;;;;4363834;32;20098;-69
2022/05/03 07:24:03;;;;;;;0.88;0.62;;;14.40;93.50;;;;;;4368468;32;21246;-69
2022/05/03 07:26:28;;;;;;;0.75;0.47;;;14.50;92.40;;;;;;4383039;32;20441;-69
2022/05/03 07:28:54;;;;;;;3.53;1.37;;;14.50;92.80;;;;;;4375188;32;20170;-68
2022/05/03 07:31:20;;;;;;;0.30;0.30;;;14.60;91.80;;;;;;4355541;32;20343;-69
2022/05/03 07:33:47;;;;;;;0.50;0.50;;;14.60;91.90;;;;;;4345837;32;20340;-69
2022/05/03 07:36:13;;;;;;;0.35;0.35;;;14.80;91.60;;;;;;4361524;32;87988;-69
2022/05/03 07:38:40;;;;;;;0.30;0.30;;;14.90;91.50;;;;;;4385959;32;20248;-70
2022/05/03 07:41:07;;;;;;;0.20;0.20;;;14.90;90.90;;;;;;4394555;32;20753;-69
2022/05/03 07:43:33;;;;;;;0.32;0.32;;;15.00;91.10;;;;;;4399640;32;20155;-69
2022/05/03 07:45:59;;;;;;;0.40;0.40;;;15.00;90.40;;;;;;4407327;32;20101;-69
2022/05/03 07:48:25;;;;;;;2.03;0.95;;;15.10;90.40;;;;;;4393409;32;20100;-69
2022/05/03 07:50:51;;;;;;;0.60;0.60;;;15.20;90.70;;;;;;4393748;32;20483;-70
2022/05/03 07:53:17;;;;;;;0.40;0.40;;;15.40;89.80;;;;;;4385607;32;20847;-67
2022/05/03 07:55:44;;;;;;;0.47;0.47;;;15.50;89.50;;;;;;4362240;32;20584;-69
2022/05/03 07:58:10;;;;;;;0.40;0.40;;;15.50;88.70;;;;;;4393117;32;21015;-70
2022/05/03 08:00:37;;;;;;;2.45;1.20;;;15.60;89.60;;;;;;4373185;32;20136;-68
2022/05/03 08:03:02;;;;;;;0.30;0.30;;;15.80;88.80;;;;;;4368020;32;20809;-68
2022/05/03 08:05:28;;;;;;;1.25;0.98;;;15.80;89.30;;;;;;4375502;32;20778;-69
2022/05/03 08:07:53;;;;;;;0.90;0.80;;;15.90;88.90;;;;;;4389336;32;20204;-69
2022/05/03 08:10:19;;;;;;;2.08;0.75;;;15.90;90.40;;;;;;4396032;32;20100;-69
2022/05/03 08:12:50;;;;;;;0.30;0.30;;;16.00;88.90;;;;;;4399813;32;20085;-69
2022/05/03 08:15:16;;;;;;;0.95;0.40;;;15.70;91.20;;;;;;4399006;32;20086;-69
2022/05/03 08:17:42;;;;;;;0.43;0.43;;;15.70;90.20;;;;;;4399643;32;20078;-68
2022/05/03 08:20:08;;;;;;;0.30;0.30;;;15.70;90.30;;;;;;4398551;32;20093;-70
2022/05/03 08:22:34;;;;;;;0.37;0.37;;;15.80;90.70;;;;;;4401196;32;20113;-69
2022/05/03 08:25:00;;;;;;;0.37;0.37;;;15.80;90.10;;;;;;4407695;32;20101;-69
2022/05/03 08:27:25;;;;;;;0.70;0.70;;;16.00;89.10;;;;;;4402887;32;20535;-68
2022/05/03 08:29:51;;;;;;;0.40;0.40;;;16.10;88.20;;;;;;4406633;32;20245;-69
2022/05/03 08:32:16;;;;;;;0.50;0.50;;;16.10;87.30;;;;;;4380155;32;20286;-69
2022/05/03 08:34:42;;;;;;;0.65;0.60;;;16.20;87.30;;;;;;4378688;32;20241;-68
2022/05/03 08:42:12;;;;;;;0.43;0.43;;;16.50;87.60;;;;;;4401576;32;20235;-69
2022/05/03 08:42:39;;;;;;;0.62;0.50;;;16.60;88.00;;;;;;4397319;32;20095;-68
2022/05/03 08:45:05;;;;;;;0.30;0.30;;;16.40;87.20;;;;;;4408062;32;20753;-69
2022/05/03 08:47:31;;;;;;;0.55;0.55;;;16.60;87.30;;;;;;4408517;32;20184;-70
2022/05/03 08:50:04;;;;;;;0.20;0.20;;;17.00;88.40;;;;;;4400136;32;20159;-70
2022/05/03 08:52:33;;;;;;;7.95;1.60;;;17.20;88.10;;;;;;4395902;32;20169;-70
2022/05/03 08:55:01;;;;;;;2.92;1.48;;;17.50;85.70;;;;;;4394868;32;20357;-69
2022/05/03 08:57:28;;;;;;;0.40;0.40;;;17.50;83.60;;;;;;4397147;32;20112;-69
2022/05/03 08:59:54;;;;;;;0.93;0.65;;;17.40;84.40;;;;;;4389307;32;20115;-70
2022/05/03 09:02:20;;;;;;;0.37;0.37;;;17.50;85.60;;;;;;4368656;32;20399;-69
2022/05/03 09:04:47;;;;;;;0.40;0.40;;;17.60;84.10;;;;;;4369577;32;20113;-69
2022/05/03 09:07:22;;;;;;;0.32;0.32;;;17.60;82.80;;;;;;4382280;32;20270;-69
2022/05/03 09:09:50;;;;;;;0.40;0.40;;;17.60;83.30;;;;;;4394462;32;20417;-69
2022/05/03 09:12:27;;;;;;;0.30;0.30;;;17.70;83.30;;;;;;4393105;32;20608;-69
2022/05/03 09:14:55;;;;;;;0.30;0.30;;;17.60;82.70;;;;;;4389144;32;20537;-68
2022/05/03 09:17:43;;;;;;;0.32;0.32;;;17.50;83.60;;;;;;4391222;32;20104;-68
2022/05/03 09:24:07;;;;;;;0.30;0.30;;;17.40;81.00;;;;;;4361963;32;20620;-67
2022/05/03 09:25:53;;;;;;;0.20;0.20;;;17.30;81.80;;;;;;4373540;32;20117;-65
2022/05/03 09:28:21;;;;;;;0.25;0.25;;;17.40;81.40;;;;;;4388728;32;20430;-66
2022/05/03 09:30:50;;;;;;;1.35;0.50;;;17.50;81.50;;;;;;4371397;32;21323;-65
2022/05/03 09:33:19;;;;;;;0.35;0.35;;;17.70;82.80;;;;;;4353099;32;20436;-67
2022/05/03 09:35:46;;;;;;;0.30;0.30;;;17.60;80.90;;;;;;4365787;32;20782;-65
2022/05/03 09:38:11;;;;;;;0.90;0.40;;;17.50;81.00;;;;;;4364853;32;20358;-66
2022/05/03 09:40:41;;;;;;;1.17;0.50;;;17.60;82.70;;;;;;4381874;32;21479;-66
2022/05/03 09:43:08;;;;;;;6.33;0.40;;;17.90;80.50;;;;;;4384932;32;20369;-67
2022/05/03 09:45:36;;;;;;;0.30;0.30;;;18.40;82.00;;;;;;4369483;32;20182;-67
2022/05/03 09:48:02;;;;;;;0.30;0.30;;;18.40;82.90;;;;;;4384728;32;20531;-67
2022/05/03 09:50:33;;;;;;;0.30;0.30;;;18.80;80.80;;;;;;4388868;32;20073;-68
2022/05/03 09:53:08;;;;;;;1.98;0.55;;;18.60;77.80;;;;;;4384615;32;21023;-67
2022/05/03 09:55:37;;;;;;;0.35;0.35;;;18.40;80.40;;;;;;4388250;32;20572;-67
2022/05/03 09:58:05;;;;;;;0.30;0.30;;;18.70;79.40;;;;;;4378365;32;20101;-67
2022/05/03 10:00:33;;;;;;;0.35;0.35;;;18.90;78.00;;;;;;4358688;32;20077;-67
2022/05/03 10:03:00;;;;;;;0.30;0.30;;;19.00;77.90;;;;;;4365497;32;20489;-67
2022/05/03 10:05:26;;;;;;;0.70;0.60;;;19.00;79.80;;;;;;4371370;32;20652;-69
2022/05/03 10:07:53;;;;;;;0.30;0.30;;;19.20;78.50;;;;;;4362542;32;21106;-67
2022/05/03 10:10:20;;;;;;;0.22;0.22;;;19.70;75.20;;;;;;4379255;32;20363;-66
2022/05/03 10:12:47;;;;;;;0.20;0.20;;;19.60;74.60;;;;;;4386217;32;20121;-66
2022/05/03 10:20:35;;;;;;;1.05;0.50;;;19.70;75.10;;;;;;4386358;32;20773;-66
2022/05/03 10:20:49;;;;;;;0.22;0.22;;;19.60;73.60;;;;;;4365124;32;20283;-67
2022/05/03 10:23:25;;;;;;;0.35;0.35;;;20.00;73.40;;;;;;4395042;32;20200;-67
2022/05/03 10:25:53;;;;;;;0.30;0.30;;;19.70;76.30;;;;;;4394577;32;20476;-67
2022/05/03 10:28:19;;;;;;;0.30;0.30;;;20.00;73.00;;;;;;4395042;32;20077;-67
2022/05/03 10:31:05;;;;;;;0.30;0.30;;;20.20;73.50;;;;;;4389388;32;20275;-68
2022/05/03 10:33:35;;;;;;;0.65;0.65;;;20.50;73.00;;;;;;4371931;32;20194;-66
2022/05/03 10:36:02;;;;;;;0.30;0.30;;;20.70;76.30;;;;;;4397434;32;20409;-67
2022/05/03 10:38:40;;;;;;;0.43;0.30;;;21.10;73.00;;;;;;4402181;32;20623;-68
2022/05/03 10:41:08;;;;;;;0.40;0.40;;;20.80;72.80;;;;;;4405307;32;20096;-67
2022/05/03 10:43:35;;;;;;;0.30;0.30;;;20.90;73.10;;;;;;4412418;32;20109;-67
2022/05/03 10:46:21;;;;;;;0.17;0.17;;;20.70;71.60;;;;;;4417856;32;20077;-69
2022/05/03 10:49:09;;;;;;;0.20;0.20;;;20.90;73.00;;;;;;4390739;32;20800;-68
2022/05/03 10:51:35;;;;;;;2.80;0.45;;;20.80;73.00;;;;;;4402856;32;20201;-70
2022/05/03 10:54:00;;;;;;;0.50;0.50;;;20.90;72.90;;;;;;4394960;32;20108;-68
2022/05/03 10:56:26;;;;;;;0.30;0.30;;;21.00;70.30;;;;;;4398011;32;20085;-69
2022/05/03 10:59:06;;;;;;;3.20;1.30;;;21.20;69.80;;;;;;4398275;32;20102;-69
2022/05/03 11:01:33;;;;;;;0.30;0.30;;;21.50;70.40;;;;;;4378480;32;20267;-69
2022/05/03 11:04:01;;;;;;;1.67;0.68;;;21.40;68.40;;;;;;4375433;32;20104;-70
2022/05/03 11:06:29;;;;;;;0.25;0.25;;;21.70;67.20;;;;;;4395952;32;20098;-69
2022/05/03 11:11:42;;;;;;;1.58;0.52;;;21.90;68.70;;;;;;4391042;32;20069;-69
2022/05/03 11:14:24;;;;;;;0.30;0.30;;;22.10;66.60;;;;;;4397935;32;20069;-69
2022/05/03 11:17:08;;;;;;;0.20;0.20;;;22.50;64.80;;;;;;4406059;32;20474;-69
2022/05/03 11:19:35;;;;;;;0.20;0.20;;;22.40;65.10;;;;;;4401343;32;20157;-69
2022/05/03 11:22:02;;;;;;;0.32;0.32;;;22.40;65.70;;;;;;4409516;32;20501;-69
2022/05/03 11:24:30;;;;;;;0.25;0.25;;;22.20;63.70;;;;;;4405929;32;20098;-69
2022/05/03 11:27:02;;;;;;;0.20;0.20;;;22.20;65.40;;;;;;4402573;32;20099;-69
2022/05/03 11:29:34;;;;;;;0.30;0.30;;;22.20;64.30;;;;;;4401997;32;21729;-70
2022/05/03 11:32:01;;;;;;;0.30;0.30;;;22.30;64.10;;;;;;4389285;32;20260;-70
2022/05/03 11:34:27;;;;;;;0.30;0.30;;;22.30;64.20;;;;;;4389564;32;20146;-69
2022/05/03 11:36:53;;;;;;;0.37;0.28;;;22.40;64.40;;;;;;4394880;32;20702;-69
2022/05/03 11:39:20;;;;;;;0.20;0.20;;;22.80;63.30;;;;;;4381199;32;20256;-71
2022/05/03 11:41:47;;;;;;;0.30;0.30;;;23.20;61.40;;;;;;4379396;32;20779;-69
2022/05/03 11:44:13;;;;;;;0.10;0.10;;;23.40;61.00;;;;;;4379927;32;20077;-71
2022/05/03 11:46:41;;;;;;;0.20;0.20;;;23.30;60.40;;;;;;4385874;32;20434;-71
2022/05/03 11:49:09;;;;;;;0.10;0.10;;;23.40;59.80;;;;;;4382918;32;20155;-71
2022/05/03 11:56:26;;;;;;;0.10;0.10;;;23.90;59.60;;;;;;4388903;32;20593;-70
2022/05/03 11:57:13;;;;;;;0.90;0.20;;;24.10;58.00;;;;;;4380313;32;20159;-70
2022/05/03 11:59:41;;;;;;;0.10;0.10;;;24.60;56.70;;;;;;4392524;32;20084;-71
2022/05/03 12:02:28;;;;;;;0.20;0.20;;;24.90;56.20;;;;;;4375829;32;20816;-70
2022/05/03 12:05:16;;;;;;;0.05;0.05;;;24.50;56.60;;;;;;4371917;32;20057;-70
2022/05/03 12:07:45;;;;;;;0.00;0.00;;;24.70;55.50;;;;;;4391270;32;20250;-71
2022/05/03 12:10:20;;;;;;;0.17;0.17;;;24.80;55.20;;;;;;4389261;32;20588;-71
2022/05/03 12:13:02;;;;;;;0.10;0.10;;;25.20;55.70;;;;;;4387976;32;20096;-70
2022/05/03 12:15:28;;;;;;;0.35;0.17;;;25.00;55.20;;;;;;4396034;32;20104;-71
2022/05/03 12:18:01;;;;;;;0.10;0.10;;;25.10;55.30;;;;;;4400924;32;21477;-72
2022/05/03 12:20:40;;;;;;;0.00;0.00;;;24.90;54.90;;;;;;4391126;32;20249;-71
2022/05/03 12:23:13;;;;;;;0.10;0.10;;;24.90;56.20;;;;;;4381229;32;20786;-71
2022/05/03 12:25:41;;;;;;;0.05;0.05;;;25.40;54.80;;;;;;4391986;32;20112;-70
2022/05/03 12:28:07;;;;;;;0.00;0.00;;;25.80;55.30;;;;;;4394187;32;20187;-71
2022/05/03 12:30:33;;;;;;;0.85;0.20;;;26.00;54.60;;;;;;4395526;32;20138;-70
2022/05/03 12:33:05;;;;;;;0.65;0.50;;;26.10;53.80;;;;;;4386811;32;20402;-68
2022/05/03 12:35:33;;;;;;;0.00;0.00;;;25.80;53.80;;;;;;4385897;32;20122;-69
2022/05/03 12:38:09;;;;;;;1.30;0.55;;;25.40;55.90;;;;;;4394432;32;20570;-69
2022/05/03 12:40:43;;;;;;;0.10;0.10;;;25.40;55.70;;;;;;4395253;32;20093;-69
2022/05/03 12:43:13;;;;;;;0.75;0.20;;;25.60;55.40;;;;;;4398457;32;20584;-69
2022/05/03 12:45:39;;;;;;;0.00;0.00;;;25.90;54.20;;;;;;4412627;32;20234;-69
2022/05/03 12:48:06;;;;;;;0.00;0.00;;;26.10;54.50;;;;;;4410808;32;20171;-68
2022/05/03 12:50:31;;;;;;;0.00;0.00;;;26.30;54.40;;;;;;4414064;32;20247;-69
2022/05/03 12:52:57;;;;;;;0.00;0.00;;;26.50;53.50;;;;;;4416045;32;20113;-69
2022/05/03 12:55:23;;;;;;;0.00;0.00;;;26.30;53.20;;;;;;4417150;32;20061;-69
2022/05/03 12:58:49;;;;;;;0.00;0.00;;;26.00;55.80;;;;;;4419206;32;20657;-71
2022/05/03 13:00:36;;;;;;;7.20;0.95;;;26.00;55.20;;;;;;4400982;32;20451;-69
2022/05/03 13:03:03;;;;;;;0.00;0.00;;;26.30;54.60;;;;;;4400073;32;20883;-67
2022/05/03 13:05:29;;;;;;;0.32;0.08;;;26.20;56.60;;;;;;4398360;32;20128;-67
2022/05/03 13:07:54;;;;;;;0.00;0.00;;;26.10;55.00;;;;;;4412899;32;20277;-66
2022/05/03 13:10:20;;;;;;;0.62;0.22;;;26.50;54.90;;;;;;4408513;32;20800;-67
2022/05/03 13:12:45;;;;;;;0.00;0.00;;;27.00;53.50;;;;;;4399747;32;20125;-67
2022/05/03 13:15:11;;;;;;;0.20;0.00;;;27.60;53.00;;;;;;4413157;32;20238;-68
2022/05/03 13:17:36;;;;;;;0.00;0.00;;;28.40;50.90;;;;;;4404372;32;20428;-67
2022/05/03 13:20:04;;;;;;;0.10;0.10;;;28.70;52.00;;;;;;4414767;32;20707;-68
2022/05/03 13:22:32;;;;;;;0.00;0.00;;;28.70;52.30;;;;;;4419316;32;20473;-67
2022/05/03 13:24:57;;;;;;;0.00;0.00;;;27.90;53.50;;;;;;4413647;32;20605;-67
2022/05/03 13:27:23;;;;;;;4.55;0.73;;;27.90;54.10;;;;;;4419213;32;20127;-68